sensor_id;sensor_type;location;lat;lon;timestamp;P1;durP1;ratioP1;P2;durP2;ratioP2
74644;SDS011;63163;55.630;37.594;2023-04-29T00:00:07;4.9;;;2.2;;
74644;SDS011;63163;55.630;37.594;2023-04-29T00:01:09;2.9;;;2.1;;
74644;SDS011;63163;55.630;37.594;2023-04-29T00:02:09;2.9;;;2.2;;
74644;SDS011;63163;55.630;37.594;2023-04-29T00:03:10;2.8;;;2.0;;
74644;SDS011;63163;55.630;37.594;2023-04-29T00:04:11;4.2;;;2.1;;
74644;SDS011;63163;55.630;37.594;2023-04-29T00:05:12;3.8;;;2.1;;
74644;SDS011;63163;55.630;37.594;2023-04-29T00:06:13;3.2;;;2.0;;
74644;SDS011;63163;55.630;37.594;2023-04-29T00:07:14;3.8;;;2.1;;
74644;SDS011;63163;55.630;37.594;2023-04-29T00:08:15;4.2;;;2.2;;
74644;SDS011;63163;55.630;37.594;2023-04-29T00:09:15;2.6;;;2.0;;
74644;SDS011;63163;55.630;37.594;2023-04-29T00:10:16;2.6;;;2.0;;
74644;SDS011;63163;55.630;37.594;2023-04-29T00:11:16;3.8;;;2.1;;
74644;SDS011;63163;55.630;37.594;2023-04-29T00:12:17;2.5;;;1.9;;
74644;SDS011;63163;55.630;37.594;2023-04-29T00:13:17;4.5;;;2.1;;
74644;SDS011;63163;55.630;37.594;2023-04-29T00:14:18;3.8;;;2.3;;
74644;SDS011;63163;55.630;37.594;2023-04-29T00:15:18;4.2;;;2.1;;
74644;SDS011;63163;55.630;37.594;2023-04-29T00:16:19;3.1;;;2.1;;
74644;SDS011;63163;55.630;37.594;2023-04-29T00:17:20;2.8;;;2.0;;
74644;SDS011;63163;55.630;37.594;2023-04-29T00:18:20;3.0;;;2.0;;
74644;SDS011;63163;55.630;37.594;2023-04-29T00:19:21;3.1;;;2.1;;
74644;SDS011;63163;55.630;37.594;2023-04-29T00:20:21;4.0;;;1.9;;
74644;SDS011;63163;55.630;37.594;2023-04-29T00:21:32;3.6;;;2.2;;
74644;SDS011;63163;55.630;37.594;2023-04-29T00:22:33;3.3;;;2.2;;
74644;SDS011;63163;55.630;37.594;2023-04-29T00:23:33;4.1;;;2.2;;
74644;SDS011;63163;55.630;37.594;2023-04-29T00:24:35;3.4;;;2.1;;
74644;SDS011;63163;55.630;37.594;2023-04-29T00:25:36;3.7;;;1.9;;
74644;SDS011;63163;55.630;37.594;2023-04-29T00:26:38;3.8;;;2.1;;
74644;SDS011;63163;55.630;37.594;2023-04-29T00:27:40;5.1;;;2.3;;
74644;SDS011;63163;55.630;37.594;2023-04-29T00:28:41;3.8;;;2.0;;
74644;SDS011;63163;55.630;37.594;2023-04-29T00:29:41;3.8;;;2.3;;
74644;SDS011;63163;55.630;37.594;2023-04-29T00:30:42;3.4;;;2.1;;
74644;SDS011;63163;55.630;37.594;2023-04-29T00:31:43;3.1;;;2.0;;
74644;SDS011;63163;55.630;37.594;2023-04-29T00:32:44;3.0;;;2.0;;
74644;SDS011;63163;55.630;37.594;2023-04-29T00:33:44;2.8;;;2.2;;
74644;SDS011;63163;55.630;37.594;2023-04-29T00:34:45;3.8;;;2.2;;
74644;SDS011;63163;55.630;37.594;2023-04-29T00:35:46;4.0;;;2.0;;
74644;SDS011;63163;55.630;37.594;2023-04-29T00:36:47;4.5;;;2.1;;
74644;SDS011;63163;55.630;37.594;2023-04-29T00:37:47;3.1;;;2.1;;
74644;SDS011;63163;55.630;37.594;2023-04-29T00:38:48;2.8;;;2.2;;
74644;SDS011;63163;55.630;37.594;2023-04-29T00:39:48;3.3;;;2.1;;
74644;SDS011;63163;55.630;37.594;2023-04-29T00:40:49;3.2;;;2.2;;
74644;SDS011;63163;55.630;37.594;2023-04-29T00:41:50;3.8;;;1.9;;
74644;SDS011;63163;55.630;37.594;2023-04-29T00:42:51;3.6;;;2.2;;
74644;SDS011;63163;55.630;37.594;2023-04-29T00:43:51;4.2;;;2.2;;
74644;SDS011;63163;55.630;37.594;2023-04-29T00:44:52;2.7;;;1.9;;
74644;SDS011;63163;55.630;37.594;2023-04-29T00:45:52;3.6;;;2.0;;
74644;SDS011;63163;55.630;37.594;2023-04-29T00:46:53;3.1;;;2.0;;
74644;SDS011;63163;55.630;37.594;2023-04-29T00:47:54;2.5;;;2.2;;
74644;SDS011;63163;55.630;37.594;2023-04-29T00:48:55;2.4;;;1.9;;
74644;SDS011;63163;55.630;37.594;2023-04-29T00:49:56;3.0;;;1.8;;
74644;SDS011;63163;55.630;37.594;2023-04-29T00:50:57;4.1;;;2.0;;
74644;SDS011;63163;55.630;37.594;2023-04-29T00:51:57;4.2;;;2.3;;
74644;SDS011;63163;55.630;37.594;2023-04-29T00:52:58;3.0;;;2.0;;
74644;SDS011;63163;55.630;37.594;2023-04-29T00:53:59;3.0;;;2.0;;
74644;SDS011;63163;55.630;37.594;2023-04-29T00:55:00;3.8;;;2.2;;
74644;SDS011;63163;55.630;37.594;2023-04-29T00:56:00;3.2;;;2.1;;
74644;SDS011;63163;55.630;37.594;2023-04-29T00:57:02;5.0;;;1.9;;
74644;SDS011;63163;55.630;37.594;2023-04-29T00:58:03;2.4;;;1.8;;
74644;SDS011;63163;55.630;37.594;2023-04-29T00:59:03;2.7;;;1.9;;
74644;SDS011;63163;55.630;37.594;2023-04-29T01:00:05;3.3;;;1.9;;
74644;SDS011;63163;55.630;37.594;2023-04-29T01:01:06;2.7;;;1.9;;
74644;SDS011;63163;55.630;37.594;2023-04-29T01:02:07;3.6;;;2.0;;
74644;SDS011;63163;55.630;37.594;2023-04-29T01:03:08;2.5;;;1.7;;
74644;SDS011;63163;55.630;37.594;2023-04-29T01:04:09;2.4;;;1.5;;
74644;SDS011;63163;55.630;37.594;2023-04-29T01:05:09;1.8;;;1.4;;
74644;SDS011;63163;55.630;37.594;2023-04-29T01:06:14;1.9;;;1.4;;
74644;SDS011;63163;55.630;37.594;2023-04-29T01:07:17;2.2;;;1.7;;
74644;SDS011;63163;55.630;37.594;2023-04-29T01:08:21;2.1;;;1.5;;
74644;SDS011;63163;55.630;37.594;2023-04-29T01:09:28;2.1;;;1.5;;
74644;SDS011;63163;55.630;37.594;2023-04-29T01:10:34;3.0;;;1.5;;
74644;SDS011;63163;55.630;37.594;2023-04-29T01:11:38;3.3;;;1.6;;
74644;SDS011;63163;55.630;37.594;2023-04-29T01:12:41;3.0;;;1.4;;
74644;SDS011;63163;55.630;37.594;2023-04-29T01:13:45;3.6;;;1.7;;
74644;SDS011;63163;55.630;37.594;2023-04-29T01:14:52;2.0;;;1.5;;
74644;SDS011;63163;55.630;37.594;2023-04-29T01:15:55;2.0;;;1.4;;
74644;SDS011;63163;55.630;37.594;2023-04-29T01:16:59;2.6;;;1.3;;
74644;SDS011;63163;55.630;37.594;2023-04-29T01:18:03;2.4;;;1.8;;
74644;SDS011;63163;55.630;37.594;2023-04-29T01:19:07;2.9;;;1.5;;
74644;SDS011;63163;55.630;37.594;2023-04-29T01:20:13;2.6;;;1.5;;
74644;SDS011;63163;55.630;37.594;2023-04-29T01:21:14;2.0;;;1.6;;
74644;SDS011;63163;55.630;37.594;2023-04-29T01:22:15;3.7;;;1.6;;
74644;SDS011;63163;55.630;37.594;2023-04-29T01:23:17;2.0;;;1.3;;
74644;SDS011;63163;55.630;37.594;2023-04-29T01:24:18;2.1;;;1.6;;
74644;SDS011;63163;55.630;37.594;2023-04-29T01:25:18;2.1;;;1.6;;
74644;SDS011;63163;55.630;37.594;2023-04-29T01:26:19;1.9;;;1.6;;
74644;SDS011;63163;55.630;37.594;2023-04-29T01:27:22;2.6;;;1.6;;
74644;SDS011;63163;55.630;37.594;2023-04-29T01:28:28;2.1;;;1.6;;
74644;SDS011;63163;55.630;37.594;2023-04-29T01:29:38;2.4;;;1.6;;
74644;SDS011;63163;55.630;37.594;2023-04-29T01:30:41;2.2;;;1.5;;
74644;SDS011;63163;55.630;37.594;2023-04-29T01:31:45;2.4;;;1.7;;
74644;SDS011;63163;55.630;37.594;2023-04-29T01:32:51;3.1;;;1.6;;
74644;SDS011;63163;55.630;37.594;2023-04-29T01:33:55;2.2;;;1.7;;
74644;SDS011;63163;55.630;37.594;2023-04-29T01:34:59;2.5;;;1.7;;
74644;SDS011;63163;55.630;37.594;2023-04-29T01:36:07;2.1;;;1.6;;
74644;SDS011;63163;55.630;37.594;2023-04-29T01:37:13;2.3;;;1.6;;
74644;SDS011;63163;55.630;37.594;2023-04-29T01:38:19;2.4;;;1.7;;
74644;SDS011;63163;55.630;37.594;2023-04-29T01:39:24;1.9;;;1.5;;
74644;SDS011;63163;55.630;37.594;2023-04-29T01:40:28;3.8;;;1.8;;
74644;SDS011;63163;55.630;37.594;2023-04-29T01:41:33;1.9;;;1.7;;
74644;SDS011;63163;55.630;37.594;2023-04-29T01:42:38;3.3;;;1.5;;
74644;SDS011;63163;55.630;37.594;2023-04-29T01:43:39;2.2;;;1.7;;
74644;SDS011;63163;55.630;37.594;2023-04-29T01:44:40;3.0;;;1.9;;
74644;SDS011;63163;55.630;37.594;2023-04-29T01:45:42;2.3;;;1.6;;
74644;SDS011;63163;55.630;37.594;2023-04-29T01:46:46;3.3;;;1.8;;
74644;SDS011;63163;55.630;37.594;2023-04-29T01:47:48;3.2;;;1.6;;
74644;SDS011;63163;55.630;37.594;2023-04-29T01:48:52;2.9;;;1.6;;
74644;SDS011;63163;55.630;37.594;2023-04-29T01:49:53;4.1;;;1.9;;
74644;SDS011;63163;55.630;37.594;2023-04-29T01:50:54;2.4;;;1.8;;
74644;SDS011;63163;55.630;37.594;2023-04-29T01:51:54;2.7;;;1.7;;
74644;SDS011;63163;55.630;37.594;2023-04-29T01:52:56;3.0;;;1.8;;
74644;SDS011;63163;55.630;37.594;2023-04-29T01:53:56;2.0;;;1.5;;
74644;SDS011;63163;55.630;37.594;2023-04-29T01:54:57;2.3;;;1.7;;
74644;SDS011;63163;55.630;37.594;2023-04-29T01:55:57;3.3;;;1.9;;
74644;SDS011;63163;55.630;37.594;2023-04-29T01:56:58;2.9;;;1.6;;
74644;SDS011;63163;55.630;37.594;2023-04-29T01:57:59;2.6;;;1.8;;
74644;SDS011;63163;55.630;37.594;2023-04-29T01:59:00;2.5;;;1.9;;
74644;SDS011;63163;55.630;37.594;2023-04-29T02:00:01;4.9;;;1.8;;
74644;SDS011;63163;55.630;37.594;2023-04-29T02:01:01;2.4;;;1.8;;
74644;SDS011;63163;55.630;37.594;2023-04-29T02:02:02;3.5;;;1.8;;
74644;SDS011;63163;55.630;37.594;2023-04-29T02:03:03;3.8;;;1.9;;
74644;SDS011;63163;55.630;37.594;2023-04-29T02:04:04;3.0;;;1.9;;
74644;SDS011;63163;55.630;37.594;2023-04-29T02:05:04;3.5;;;1.7;;
74644;SDS011;63163;55.630;37.594;2023-04-29T02:06:05;2.6;;;1.7;;
74644;SDS011;63163;55.630;37.594;2023-04-29T02:07:06;3.5;;;2.3;;
74644;SDS011;63163;55.630;37.594;2023-04-29T02:08:06;4.4;;;1.9;;
74644;SDS011;63163;55.630;37.594;2023-04-29T02:09:07;2.2;;;1.9;;
74644;SDS011;63163;55.630;37.594;2023-04-29T02:10:08;3.3;;;2.0;;
74644;SDS011;63163;55.630;37.594;2023-04-29T02:11:08;3.8;;;2.0;;
74644;SDS011;63163;55.630;37.594;2023-04-29T02:12:09;3.9;;;2.1;;
74644;SDS011;63163;55.630;37.594;2023-04-29T02:13:10;4.3;;;2.2;;
74644;SDS011;63163;55.630;37.594;2023-04-29T02:14:12;2.8;;;1.8;;
74644;SDS011;63163;55.630;37.594;2023-04-29T02:15:13;3.2;;;2.2;;
74644;SDS011;63163;55.630;37.594;2023-04-29T02:16:14;2.5;;;1.9;;
74644;SDS011;63163;55.630;37.594;2023-04-29T02:17:15;3.4;;;1.7;;
74644;SDS011;63163;55.630;37.594;2023-04-29T02:18:15;2.4;;;1.8;;
74644;SDS011;63163;55.630;37.594;2023-04-29T02:19:16;3.0;;;1.8;;
74644;SDS011;63163;55.630;37.594;2023-04-29T02:20:17;2.4;;;1.8;;
74644;SDS011;63163;55.630;37.594;2023-04-29T02:21:17;4.3;;;1.8;;
74644;SDS011;63163;55.630;37.594;2023-04-29T02:22:18;3.4;;;2.0;;
74644;SDS011;63163;55.630;37.594;2023-04-29T02:23:19;2.9;;;1.9;;
74644;SDS011;63163;55.630;37.594;2023-04-29T02:24:19;2.7;;;1.8;;
74644;SDS011;63163;55.630;37.594;2023-04-29T02:25:20;3.6;;;1.9;;
74644;SDS011;63163;55.630;37.594;2023-04-29T02:26:20;2.4;;;1.8;;
74644;SDS011;63163;55.630;37.594;2023-04-29T02:27:21;2.2;;;1.6;;
74644;SDS011;63163;55.630;37.594;2023-04-29T02:28:22;2.8;;;1.8;;
74644;SDS011;63163;55.630;37.594;2023-04-29T02:29:23;2.5;;;1.9;;
74644;SDS011;63163;55.630;37.594;2023-04-29T02:30:25;2.3;;;1.7;;
74644;SDS011;63163;55.630;37.594;2023-04-29T02:31:26;4.4;;;2.0;;
74644;SDS011;63163;55.630;37.594;2023-04-29T02:32:28;2.7;;;1.9;;
74644;SDS011;63163;55.630;37.594;2023-04-29T02:33:28;2.5;;;1.7;;
74644;SDS011;63163;55.630;37.594;2023-04-29T02:34:29;2.5;;;1.7;;
74644;SDS011;63163;55.630;37.594;2023-04-29T02:35:31;3.0;;;1.8;;
74644;SDS011;63163;55.630;37.594;2023-04-29T02:36:31;2.3;;;1.7;;
74644;SDS011;63163;55.630;37.594;2023-04-29T02:37:32;2.5;;;1.7;;
74644;SDS011;63163;55.630;37.594;2023-04-29T02:38:33;2.3;;;1.8;;
74644;SDS011;63163;55.630;37.594;2023-04-29T02:39:33;2.7;;;1.8;;
74644;SDS011;63163;55.630;37.594;2023-04-29T02:40:37;3.1;;;1.8;;
74644;SDS011;63163;55.630;37.594;2023-04-29T02:41:40;4.0;;;2.1;;
74644;SDS011;63163;55.630;37.594;2023-04-29T02:42:41;3.3;;;1.9;;
74644;SDS011;63163;55.630;37.594;2023-04-29T02:43:42;4.4;;;2.0;;
74644;SDS011;63163;55.630;37.594;2023-04-29T02:44:43;1.9;;;1.7;;
74644;SDS011;63163;55.630;37.594;2023-04-29T02:45:44;2.4;;;1.6;;
74644;SDS011;63163;55.630;37.594;2023-04-29T02:46:45;2.5;;;1.8;;
74644;SDS011;63163;55.630;37.594;2023-04-29T02:47:45;2.1;;;1.7;;
74644;SDS011;63163;55.630;37.594;2023-04-29T02:48:46;3.2;;;1.6;;
74644;SDS011;63163;55.630;37.594;2023-04-29T02:49:47;3.4;;;2.0;;
74644;SDS011;63163;55.630;37.594;2023-04-29T02:50:47;2.6;;;1.9;;
74644;SDS011;63163;55.630;37.594;2023-04-29T02:51:48;2.7;;;1.8;;
74644;SDS011;63163;55.630;37.594;2023-04-29T02:52:49;3.3;;;1.9;;
74644;SDS011;63163;55.630;37.594;2023-04-29T02:53:50;2.8;;;1.9;;
74644;SDS011;63163;55.630;37.594;2023-04-29T02:54:51;3.9;;;1.8;;
74644;SDS011;63163;55.630;37.594;2023-04-29T02:55:51;2.3;;;1.7;;
74644;SDS011;63163;55.630;37.594;2023-04-29T02:56:52;2.8;;;1.7;;
74644;SDS011;63163;55.630;37.594;2023-04-29T02:57:53;3.4;;;2.0;;
74644;SDS011;63163;55.630;37.594;2023-04-29T02:58:53;2.4;;;1.8;;
74644;SDS011;63163;55.630;37.594;2023-04-29T02:59:54;2.3;;;1.8;;
74644;SDS011;63163;55.630;37.594;2023-04-29T03:00:55;2.6;;;1.6;;
74644;SDS011;63163;55.630;37.594;2023-04-29T03:01:55;2.7;;;1.3;;
74644;SDS011;63163;55.630;37.594;2023-04-29T03:02:56;2.2;;;1.4;;
74644;SDS011;63163;55.630;37.594;2023-04-29T03:03:57;2.3;;;1.4;;
74644;SDS011;63163;55.630;37.594;2023-04-29T03:04:58;1.6;;;1.3;;
74644;SDS011;63163;55.630;37.594;2023-04-29T03:05:58;2.3;;;1.3;;
74644;SDS011;63163;55.630;37.594;2023-04-29T03:06:59;2.8;;;1.4;;
74644;SDS011;63163;55.630;37.594;2023-04-29T03:07:59;1.7;;;1.3;;
74644;SDS011;63163;55.630;37.594;2023-04-29T03:09:00;2.3;;;1.5;;
74644;SDS011;63163;55.630;37.594;2023-04-29T03:10:01;1.9;;;1.3;;
74644;SDS011;63163;55.630;37.594;2023-04-29T03:11:02;3.1;;;1.5;;
74644;SDS011;63163;55.630;37.594;2023-04-29T03:12:03;2.7;;;1.3;;
74644;SDS011;63163;55.630;37.594;2023-04-29T03:13:03;2.3;;;1.4;;
74644;SDS011;63163;55.630;37.594;2023-04-29T03:14:04;1.7;;;1.4;;
74644;SDS011;63163;55.630;37.594;2023-04-29T03:15:05;1.9;;;1.5;;
74644;SDS011;63163;55.630;37.594;2023-04-29T03:16:06;1.6;;;1.3;;
74644;SDS011;63163;55.630;37.594;2023-04-29T03:17:07;1.8;;;1.5;;
74644;SDS011;63163;55.630;37.594;2023-04-29T03:18:07;1.8;;;1.2;;
74644;SDS011;63163;55.630;37.594;2023-04-29T03:19:08;2.5;;;1.5;;
74644;SDS011;63163;55.630;37.594;2023-04-29T03:20:10;4.0;;;1.6;;
74644;SDS011;63163;55.630;37.594;2023-04-29T03:21:10;1.6;;;1.3;;
74644;SDS011;63163;55.630;37.594;2023-04-29T03:22:11;3.3;;;1.6;;
74644;SDS011;63163;55.630;37.594;2023-04-29T03:23:12;3.3;;;1.5;;
74644;SDS011;63163;55.630;37.594;2023-04-29T03:24:12;2.5;;;1.7;;
74644;SDS011;63163;55.630;37.594;2023-04-29T03:25:13;2.0;;;1.4;;
74644;SDS011;63163;55.630;37.594;2023-04-29T03:26:14;1.4;;;1.3;;
74644;SDS011;63163;55.630;37.594;2023-04-29T03:27:14;2.3;;;1.5;;
74644;SDS011;63163;55.630;37.594;2023-04-29T03:28:15;2.1;;;1.6;;
74644;SDS011;63163;55.630;37.594;2023-04-29T03:29:16;2.1;;;1.5;;
74644;SDS011;63163;55.630;37.594;2023-04-29T03:30:16;3.3;;;1.7;;
74644;SDS011;63163;55.630;37.594;2023-04-29T03:31:17;2.3;;;1.6;;
74644;SDS011;63163;55.630;37.594;2023-04-29T03:32:19;1.9;;;1.5;;
74644;SDS011;63163;55.630;37.594;2023-04-29T03:33:20;1.8;;;1.4;;
74644;SDS011;63163;55.630;37.594;2023-04-29T03:34:21;1.6;;;1.4;;
74644;SDS011;63163;55.630;37.594;2023-04-29T03:35:21;1.8;;;1.5;;
74644;SDS011;63163;55.630;37.594;2023-04-29T03:36:22;2.1;;;1.5;;
74644;SDS011;63163;55.630;37.594;2023-04-29T03:37:23;2.2;;;1.5;;
74644;SDS011;63163;55.630;37.594;2023-04-29T03:38:23;3.1;;;1.5;;
74644;SDS011;63163;55.630;37.594;2023-04-29T03:39:25;1.6;;;1.4;;
74644;SDS011;63163;55.630;37.594;2023-04-29T03:40:27;1.9;;;1.4;;
74644;SDS011;63163;55.630;37.594;2023-04-29T03:41:28;3.6;;;1.5;;
74644;SDS011;63163;55.630;37.594;2023-04-29T03:42:28;2.5;;;1.4;;
74644;SDS011;63163;55.630;37.594;2023-04-29T03:43:29;2.3;;;1.5;;
74644;SDS011;63163;55.630;37.594;2023-04-29T03:44:29;2.8;;;1.8;;
74644;SDS011;63163;55.630;37.594;2023-04-29T03:45:30;2.8;;;1.7;;
74644;SDS011;63163;55.630;37.594;2023-04-29T03:46:31;3.6;;;1.7;;
74644;SDS011;63163;55.630;37.594;2023-04-29T03:47:31;3.9;;;1.7;;
74644;SDS011;63163;55.630;37.594;2023-04-29T03:48:32;3.0;;;1.7;;
74644;SDS011;63163;55.630;37.594;2023-04-29T03:49:33;2.1;;;1.6;;
74644;SDS011;63163;55.630;37.594;2023-04-29T03:50:34;2.1;;;1.5;;
74644;SDS011;63163;55.630;37.594;2023-04-29T03:51:35;2.3;;;1.7;;
74644;SDS011;63163;55.630;37.594;2023-04-29T03:52:36;2.4;;;1.6;;
74644;SDS011;63163;55.630;37.594;2023-04-29T03:53:37;2.7;;;1.3;;
74644;SDS011;63163;55.630;37.594;2023-04-29T03:54:37;1.9;;;1.4;;
74644;SDS011;63163;55.630;37.594;2023-04-29T03:55:38;2.4;;;1.5;;
74644;SDS011;63163;55.630;37.594;2023-04-29T03:56:38;2.0;;;1.2;;
74644;SDS011;63163;55.630;37.594;2023-04-29T03:57:40;2.0;;;1.4;;
74644;SDS011;63163;55.630;37.594;2023-04-29T03:58:40;1.5;;;1.3;;
74644;SDS011;63163;55.630;37.594;2023-04-29T03:59:41;4.1;;;1.6;;
74644;SDS011;63163;55.630;37.594;2023-04-29T04:00:42;2.1;;;1.3;;
74644;SDS011;63163;55.630;37.594;2023-04-29T04:01:42;3.3;;;1.5;;
74644;SDS011;63163;55.630;37.594;2023-04-29T04:02:43;2.2;;;1.4;;
74644;SDS011;63163;55.630;37.594;2023-04-29T04:03:43;1.7;;;1.3;;
74644;SDS011;63163;55.630;37.594;2023-04-29T04:04:44;1.7;;;1.2;;
74644;SDS011;63163;55.630;37.594;2023-04-29T04:05:45;3.0;;;1.4;;
74644;SDS011;63163;55.630;37.594;2023-04-29T04:06:45;2.0;;;1.4;;
74644;SDS011;63163;55.630;37.594;2023-04-29T04:07:50;2.8;;;1.5;;
74644;SDS011;63163;55.630;37.594;2023-04-29T04:08:51;2.9;;;1.7;;
74644;SDS011;63163;55.630;37.594;2023-04-29T04:09:52;2.0;;;1.4;;
74644;SDS011;63163;55.630;37.594;2023-04-29T04:10:52;1.7;;;1.1;;
74644;SDS011;63163;55.630;37.594;2023-04-29T04:11:53;1.8;;;1.4;;
74644;SDS011;63163;55.630;37.594;2023-04-29T04:12:54;3.5;;;1.4;;
74644;SDS011;63163;55.630;37.594;2023-04-29T04:13:54;1.5;;;1.3;;
74644;SDS011;63163;55.630;37.594;2023-04-29T04:14:55;2.1;;;1.5;;
74644;SDS011;63163;55.630;37.594;2023-04-29T04:15:56;1.2;;;1.1;;
74644;SDS011;63163;55.630;37.594;2023-04-29T04:16:57;2.2;;;1.2;;
74644;SDS011;63163;55.630;37.594;2023-04-29T04:17:57;2.0;;;1.3;;
74644;SDS011;63163;55.630;37.594;2023-04-29T04:18:58;1.9;;;1.6;;
74644;SDS011;63163;55.630;37.594;2023-04-29T04:19:58;2.2;;;1.1;;
74644;SDS011;63163;55.630;37.594;2023-04-29T04:21:03;1.5;;;1.1;;
74644;SDS011;63163;55.630;37.594;2023-04-29T04:22:04;1.5;;;1.2;;
74644;SDS011;63163;55.630;37.594;2023-04-29T04:23:04;1.9;;;1.2;;
74644;SDS011;63163;55.630;37.594;2023-04-29T04:24:05;1.2;;;1.1;;
74644;SDS011;63163;55.630;37.594;2023-04-29T04:25:06;1.3;;;1.0;;
74644;SDS011;63163;55.630;37.594;2023-04-29T04:26:07;2.0;;;1.1;;
74644;SDS011;63163;55.630;37.594;2023-04-29T04:27:08;1.2;;;1.0;;
74644;SDS011;63163;55.630;37.594;2023-04-29T04:28:08;1.1;;;1.0;;
74644;SDS011;63163;55.630;37.594;2023-04-29T04:29:09;2.5;;;1.3;;
74644;SDS011;63163;55.630;37.594;2023-04-29T04:30:10;3.7;;;1.3;;
74644;SDS011;63163;55.630;37.594;2023-04-29T04:31:11;2.6;;;1.1;;
74644;SDS011;63163;55.630;37.594;2023-04-29T04:32:13;1.7;;;1.2;;
74644;SDS011;63163;55.630;37.594;2023-04-29T04:33:14;2.1;;;1.3;;
74644;SDS011;63163;55.630;37.594;2023-04-29T04:34:15;2.5;;;1.4;;
74644;SDS011;63163;55.630;37.594;2023-04-29T04:35:15;1.7;;;1.4;;
74644;SDS011;63163;55.630;37.594;2023-04-29T04:36:16;1.5;;;1.2;;
74644;SDS011;63163;55.630;37.594;2023-04-29T04:37:17;1.7;;;1.3;;
74644;SDS011;63163;55.630;37.594;2023-04-29T04:38:17;1.6;;;1.3;;
74644;SDS011;63163;55.630;37.594;2023-04-29T04:39:18;2.3;;;1.3;;
74644;SDS011;63163;55.630;37.594;2023-04-29T04:40:19;1.7;;;1.3;;
74644;SDS011;63163;55.630;37.594;2023-04-29T04:41:20;1.9;;;1.4;;
74644;SDS011;63163;55.630;37.594;2023-04-29T04:42:21;1.8;;;1.2;;
74644;SDS011;63163;55.630;37.594;2023-04-29T04:43:21;1.9;;;1.4;;
74644;SDS011;63163;55.630;37.594;2023-04-29T04:44:22;1.5;;;1.3;;
74644;SDS011;63163;55.630;37.594;2023-04-29T04:45:23;4.2;;;1.5;;
74644;SDS011;63163;55.630;37.594;2023-04-29T04:46:23;2.2;;;1.6;;
74644;SDS011;63163;55.630;37.594;2023-04-29T04:47:24;4.0;;;2.0;;
74644;SDS011;63163;55.630;37.594;2023-04-29T04:48:25;2.8;;;1.5;;
74644;SDS011;63163;55.630;37.594;2023-04-29T04:49:25;2.9;;;1.8;;
74644;SDS011;63163;55.630;37.594;2023-04-29T04:50:26;4.1;;;1.8;;
74644;SDS011;63163;55.630;37.594;2023-04-29T04:51:27;2.5;;;1.7;;
74644;SDS011;63163;55.630;37.594;2023-04-29T04:52:28;4.0;;;1.7;;
74644;SDS011;63163;55.630;37.594;2023-04-29T04:53:29;3.2;;;1.9;;
74644;SDS011;63163;55.630;37.594;2023-04-29T04:54:29;2.4;;;1.7;;
74644;SDS011;63163;55.630;37.594;2023-04-29T04:55:31;3.1;;;1.8;;
74644;SDS011;63163;55.630;37.594;2023-04-29T04:56:32;3.2;;;1.8;;
74644;SDS011;63163;55.630;37.594;2023-04-29T04:57:33;2.5;;;1.7;;
74644;SDS011;63163;55.630;37.594;2023-04-29T04:58:34;4.9;;;2.0;;
74644;SDS011;63163;55.630;37.594;2023-04-29T04:59:35;4.2;;;1.8;;
74644;SDS011;63163;55.630;37.594;2023-04-29T05:00:35;5.3;;;1.9;;
74644;SDS011;63163;55.630;37.594;2023-04-29T05:01:36;3.8;;;1.9;;
74644;SDS011;63163;55.630;37.594;2023-04-29T05:02:37;3.8;;;2.1;;
74644;SDS011;63163;55.630;37.594;2023-04-29T05:03:37;2.8;;;1.9;;
74644;SDS011;63163;55.630;37.594;2023-04-29T05:04:38;6.1;;;2.0;;
74644;SDS011;63163;55.630;37.594;2023-04-29T05:05:38;4.5;;;1.9;;
74644;SDS011;63163;55.630;37.594;2023-04-29T05:06:42;3.7;;;1.9;;
74644;SDS011;63163;55.630;37.594;2023-04-29T05:07:43;4.0;;;1.8;;
74644;SDS011;63163;55.630;37.594;2023-04-29T05:08:43;3.5;;;2.0;;
74644;SDS011;63163;55.630;37.594;2023-04-29T05:09:44;3.8;;;2.1;;
74644;SDS011;63163;55.630;37.594;2023-04-29T05:10:44;3.2;;;2.0;;
74644;SDS011;63163;55.630;37.594;2023-04-29T05:11:45;3.9;;;2.0;;
74644;SDS011;63163;55.630;37.594;2023-04-29T05:12:46;2.8;;;1.7;;
74644;SDS011;63163;55.630;37.594;2023-04-29T05:13:46;4.9;;;1.7;;
74644;SDS011;63163;55.630;37.594;2023-04-29T05:14:47;4.0;;;1.9;;
74644;SDS011;63163;55.630;37.594;2023-04-29T05:15:51;2.6;;;1.7;;
74644;SDS011;63163;55.630;37.594;2023-04-29T05:16:52;3.4;;;1.9;;
74644;SDS011;63163;55.630;37.594;2023-04-29T05:17:53;4.3;;;1.7;;
74644;SDS011;63163;55.630;37.594;2023-04-29T05:18:53;4.3;;;1.9;;
74644;SDS011;63163;55.630;37.594;2023-04-29T05:19:54;4.1;;;2.2;;
74644;SDS011;63163;55.630;37.594;2023-04-29T05:20:55;2.6;;;1.8;;
74644;SDS011;63163;55.630;37.594;2023-04-29T05:21:56;2.8;;;1.9;;
74644;SDS011;63163;55.630;37.594;2023-04-29T05:22:56;3.5;;;2.1;;
74644;SDS011;63163;55.630;37.594;2023-04-29T05:23:57;3.1;;;1.9;;
74644;SDS011;63163;55.630;37.594;2023-04-29T05:24:58;3.7;;;1.8;;
74644;SDS011;63163;55.630;37.594;2023-04-29T05:26:02;5.9;;;2.1;;
74644;SDS011;63163;55.630;37.594;2023-04-29T05:27:03;4.5;;;2.1;;
74644;SDS011;63163;55.630;37.594;2023-04-29T05:28:04;3.9;;;1.8;;
74644;SDS011;63163;55.630;37.594;2023-04-29T05:29:04;3.1;;;2.0;;
74644;SDS011;63163;55.630;37.594;2023-04-29T05:30:05;2.8;;;1.9;;
74644;SDS011;63163;55.630;37.594;2023-04-29T05:31:06;3.6;;;2.1;;
74644;SDS011;63163;55.630;37.594;2023-04-29T05:32:07;3.2;;;1.9;;
74644;SDS011;63163;55.630;37.594;2023-04-29T05:33:07;2.6;;;1.9;;
74644;SDS011;63163;55.630;37.594;2023-04-29T05:34:08;3.9;;;2.2;;
74644;SDS011;63163;55.630;37.594;2023-04-29T05:35:08;16.6;;;4.1;;
74644;SDS011;63163;55.630;37.594;2023-04-29T05:36:09;7.1;;;2.5;;
74644;SDS011;63163;55.630;37.594;2023-04-29T05:37:10;3.5;;;2.2;;
74644;SDS011;63163;55.630;37.594;2023-04-29T05:38:11;3.5;;;2.2;;
74644;SDS011;63163;55.630;37.594;2023-04-29T05:39:11;5.1;;;3.4;;
74644;SDS011;63163;55.630;37.594;2023-04-29T05:40:12;3.4;;;2.1;;
74644;SDS011;63163;55.630;37.594;2023-04-29T05:41:12;4.6;;;2.9;;
74644;SDS011;63163;55.630;37.594;2023-04-29T05:42:13;12.1;;;6.8;;
74644;SDS011;63163;55.630;37.594;2023-04-29T05:43:13;4.9;;;2.6;;
74644;SDS011;63163;55.630;37.594;2023-04-29T05:44:14;4.6;;;2.5;;
74644;SDS011;63163;55.630;37.594;2023-04-29T05:45:15;6.4;;;4.0;;
74644;SDS011;63163;55.630;37.594;2023-04-29T05:46:15;3.9;;;2.6;;
74644;SDS011;63163;55.630;37.594;2023-04-29T05:47:16;3.4;;;2.3;;
74644;SDS011;63163;55.630;37.594;2023-04-29T05:48:17;5.6;;;3.2;;
74644;SDS011;63163;55.630;37.594;2023-04-29T05:49:17;5.1;;;2.9;;
74644;SDS011;63163;55.630;37.594;2023-04-29T05:50:18;8.6;;;4.3;;
74644;SDS011;63163;55.630;37.594;2023-04-29T05:51:19;6.2;;;3.1;;
74644;SDS011;63163;55.630;37.594;2023-04-29T05:52:19;4.3;;;2.5;;
74644;SDS011;63163;55.630;37.594;2023-04-29T05:53:20;4.5;;;2.8;;
74644;SDS011;63163;55.630;37.594;2023-04-29T05:54:21;5.8;;;3.2;;
74644;SDS011;63163;55.630;37.594;2023-04-29T05:55:21;5.1;;;2.7;;
74644;SDS011;63163;55.630;37.594;2023-04-29T05:56:22;2.4;;;2.2;;
74644;SDS011;63163;55.630;37.594;2023-04-29T05:57:23;5.3;;;2.5;;
74644;SDS011;63163;55.630;37.594;2023-04-29T05:58:24;3.6;;;2.5;;
74644;SDS011;63163;55.630;37.594;2023-04-29T05:59:25;4.0;;;2.3;;
74644;SDS011;63163;55.630;37.594;2023-04-29T06:00:25;4.3;;;2.4;;
74644;SDS011;63163;55.630;37.594;2023-04-29T06:01:26;3.0;;;2.3;;
74644;SDS011;63163;55.630;37.594;2023-04-29T06:02:27;5.0;;;2.6;;
74644;SDS011;63163;55.630;37.594;2023-04-29T06:03:27;3.3;;;2.3;;
74644;SDS011;63163;55.630;37.594;2023-04-29T06:04:28;3.0;;;2.3;;
74644;SDS011;63163;55.630;37.594;2023-04-29T06:05:29;4.4;;;2.4;;
74644;SDS011;63163;55.630;37.594;2023-04-29T06:06:29;5.1;;;2.4;;
74644;SDS011;63163;55.630;37.594;2023-04-29T06:07:30;3.5;;;2.3;;
74644;SDS011;63163;55.630;37.594;2023-04-29T06:08:31;3.7;;;2.6;;
74644;SDS011;63163;55.630;37.594;2023-04-29T06:09:31;4.6;;;2.5;;
74644;SDS011;63163;55.630;37.594;2023-04-29T06:10:32;4.4;;;2.8;;
74644;SDS011;63163;55.630;37.594;2023-04-29T06:11:33;4.1;;;2.2;;
74644;SDS011;63163;55.630;37.594;2023-04-29T06:12:33;5.1;;;2.7;;
74644;SDS011;63163;55.630;37.594;2023-04-29T06:13:34;3.2;;;2.4;;